Anchor Point, AK (99556)

6:35 PM AKDT on July 23, 2016 (GMT -0800)
Wilderness Greenhouse | | Change Station

Elev 335 ft 59.72 °N, 151.72 °W | Updated 13 minutes ago

Clear
Clear
70.2 °F
Feels Like 77 °F
N
2.2
Wind Variable Wind from NW

Today
High -- | Low -- °F
--% Chance of Precip.
Yesterday
High -- | Low -- °F
Precip. -- in
Pressure 29.65 in
Visibility 10.0 miles
Clouds Clear
Heat Index 77 °F
Dew Point 52 °F
Humidity 53%
Rainfall 0.00 in
Snow Depth Not available.
5:30 AM 10:54 PM
Waning Gibbous, 80% visible
METAR PAHO 240153Z AUTO 23011KT 10SM CLR 16/10 A2965 RMK AO2 SLP041 T01560100 TSNO $
Pressure 29.65 in
Visibility 10.0 miles
Clouds Clear
Heat Index 77 °F
Dew Point 52 °F
Humidity 53%
Rainfall 0.00 in
Snow Depth Not available.
5:30 AM 10:54 PM
Waning Gibbous, 80% visible
METAR PAHO 240153Z AUTO 23011KT 10SM CLR 16/10 A2965 RMK AO2 SLP041 T01560100 TSNO $

10-Day Weather Forecast

Almanac

Astronomy

Jul. 23, 2016 Rise Set
Actual Time
Civil Twilight
Nautical Twilight
Astronomical Twilight
Moon
Length of Visible Light
Length of Day
Tomorrow will be .
, % of the Moon is Illuminated

Today's Extremes

State Highs State Lows

Community

WunderPhotos

Upload Photos

1,927,000 photos uploaded!

WunderBlog® & News

Nearby

Air Quality

  Air Quality AQ Index Pollutant
Not available.

Snow Depth

Station Depth Elevation

Earthquake Activity

City Distance Mag. Time & Date
Minimum magnitude displayed is 2.5.

Coastal Water Temperatures

Place Temperature

Stations

Nearby Weather Stations

Station Location Temp. Windchill Dew Point Humidity Wind Precip. Elev Updated Type
                   

Watches & Warnings

There are currently no watches in effect.